createdAt,value
2023-05-05T00:01:53.260Z,56.83
2023-05-05T00:04:22.796Z,57.03
2023-05-05T00:06:50.906Z,56.87
2023-05-05T00:09:18.800Z,57.01
2023-05-05T00:11:46.694Z,57.21
2023-05-05T00:14:14.577Z,57.31
2023-05-05T00:16:42.671Z,57.33
2023-05-05T00:19:11.077Z,57.25
2023-05-05T00:21:38.874Z,57.34
2023-05-05T00:24:06.895Z,57.35
2023-05-05T00:26:34.814Z,57.45
2023-05-05T00:29:02.702Z,57.31
2023-05-05T00:31:30.660Z,57.27
2023-05-05T00:33:58.642Z,57.23
2023-05-05T00:36:26.425Z,57.22
2023-05-05T00:38:54.265Z,57.44
2023-05-05T00:41:22.199Z,57.51
2023-05-05T00:43:50.285Z,57.62
2023-05-05T00:46:26.946Z,57.56
2023-05-05T00:48:55.511Z,57.11
2023-05-05T00:51:24.648Z,57.39
2023-05-05T00:53:52.532Z,58.32
2023-05-05T00:56:22.186Z,58.74
2023-05-05T00:58:50.072Z,58.17
2023-05-05T01:01:18.018Z,57.93
2023-05-05T01:03:46.009Z,57.99
2023-05-05T01:06:52.464Z,58.12
2023-05-05T01:09:53.439Z,58.26
2023-05-05T01:12:58.753Z,58.44
2023-05-05T01:15:46.625Z,58.61
2023-05-05T01:18:45.937Z,58.87
2023-05-05T01:21:28.082Z,58.84
2023-05-05T01:24:41.061Z,59.48
2023-05-05T01:27:34.454Z,59.78
2023-05-05T01:30:35.160Z,59.94
2023-05-05T01:33:09.516Z,60.41
2023-05-05T01:35:44.307Z,60.94
2023-05-05T01:38:17.546Z,60.77
2023-05-05T01:41:17.524Z,61.16
2023-05-05T01:43:48.372Z,61.18
2023-05-05T01:46:16.849Z,62.04
2023-05-05T01:48:45.966Z,59.60
2023-05-05T01:51:16.005Z,56.90
2023-05-05T01:53:44.335Z,56.98
2023-05-05T01:56:12.545Z,58.01
2023-05-05T01:58:42.705Z,58.92
2023-05-05T02:01:11.473Z,59.93
2023-05-05T02:03:39.967Z,60.24
2023-05-05T02:06:08.525Z,60.85
2023-05-05T02:08:37.737Z,61.14
2023-05-05T02:11:05.593Z,61.34
2023-05-05T02:13:33.518Z,62.38
2023-05-05T02:16:03.422Z,59.91
2023-05-05T02:18:33.381Z,56.45
2023-05-05T02:21:02.118Z,56.75
2023-05-05T02:23:30.249Z,58.22
2023-05-05T02:26:04.746Z,59.51
2023-05-05T02:28:47.197Z,60.22
2023-05-05T02:31:16.471Z,60.55
2023-05-05T02:33:45.856Z,61.42
2023-05-05T02:36:21.937Z,62.31
2023-05-05T02:38:56.456Z,61.37
2023-05-05T02:41:26.408Z,57.83
2023-05-05T02:43:55.265Z,57.41
2023-05-05T02:46:23.159Z,58.96
2023-05-05T02:48:51.021Z,59.80
2023-05-05T02:51:18.843Z,60.87
2023-05-05T02:53:46.897Z,61.54
2023-05-05T02:56:47.854Z,62.13
2023-05-05T02:59:25.493Z,61.22
2023-05-05T03:02:16.757Z,57.65
2023-05-05T03:04:55.467Z,58.05
2023-05-05T03:07:31.837Z,59.47
2023-05-05T03:10:20.490Z,60.39
2023-05-05T03:12:58.857Z,61.17
2023-05-05T03:15:31.963Z,61.73
2023-05-05T03:18:00.505Z,62.22
2023-05-05T03:20:29.092Z,62.61
2023-05-05T03:22:57.205Z,58.94
2023-05-05T03:25:48.592Z,57.32
2023-05-05T03:28:17.368Z,58.63
2023-05-05T03:30:45.303Z,59.88
2023-05-05T03:33:13.132Z,60.91
2023-05-05T03:35:40.979Z,61.56
2023-05-05T03:38:08.785Z,62.11
2023-05-05T03:40:44.268Z,62.19
2023-05-05T03:43:12.642Z,58.60
2023-05-05T03:45:40.524Z,57.33
2023-05-05T03:48:09.819Z,58.82
2023-05-05T03:50:37.774Z,59.83
2023-05-05T03:53:05.631Z,60.82
2023-05-05T03:55:33.451Z,61.37
2023-05-05T03:58:01.403Z,62.02
2023-05-05T04:00:29.189Z,62.97
2023-05-05T04:02:57.160Z,59.34
2023-05-05T04:05:26.485Z,56.84
2023-05-05T04:07:54.312Z,58.11
2023-05-05T04:10:22.179Z,59.62
2023-05-05T04:12:50.008Z,60.70
2023-05-05T04:15:17.848Z,61.61
2023-05-05T04:17:45.693Z,62.22
2023-05-05T04:20:13.706Z,61.96
2023-05-05T04:22:41.593Z,58.67
2023-05-05T04:25:09.920Z,56.98
2023-05-05T04:27:37.821Z,58.62
2023-05-05T04:30:07.036Z,59.87
2023-05-05T04:32:35.370Z,61.09
2023-05-05T04:35:03.857Z,61.80
2023-05-05T04:37:31.784Z,62.55
2023-05-05T04:39:59.665Z,59.41
2023-05-05T04:42:27.399Z,57.20
2023-05-05T04:44:55.398Z,58.34
2023-05-05T04:47:23.202Z,59.73
2023-05-05T04:49:51.043Z,60.89
2023-05-05T04:52:18.892Z,61.48
2023-05-05T04:54:46.674Z,62.03
2023-05-05T04:57:14.557Z,62.57
2023-05-05T04:59:42.620Z,59.14
2023-05-05T05:02:10.545Z,56.98
2023-05-05T05:04:38.497Z,58.25
2023-05-05T05:07:06.343Z,59.61
2023-05-05T05:09:34.174Z,60.52
2023-05-05T05:12:03.206Z,61.21
2023-05-05T05:14:37.833Z,62.02
2023-05-05T05:17:06.522Z,62.40
2023-05-05T05:19:34.629Z,61.61
2023-05-05T05:22:02.478Z,57.60
2023-05-05T05:24:30.426Z,57.60
2023-05-05T05:26:58.731Z,58.83
2023-05-05T05:29:27.190Z,59.75
2023-05-05T05:31:55.209Z,60.34
2023-05-05T05:34:23.127Z,60.92
2023-05-05T05:36:51.007Z,61.24
2023-05-05T05:39:18.966Z,61.55
2023-05-05T05:41:46.691Z,61.94
2023-05-05T05:44:14.531Z,62.05
2023-05-05T05:46:42.731Z,62.27
2023-05-05T05:49:10.578Z,62.14
2023-05-05T05:51:38.581Z,58.38
2023-05-05T05:54:08.054Z,57.29
2023-05-05T05:56:35.980Z,58.21
2023-05-05T05:59:09.413Z,59.18
2023-05-05T06:01:52.401Z,59.87
2023-05-05T06:04:20.421Z,60.36
2023-05-05T06:06:48.239Z,60.48
2023-05-05T06:09:16.111Z,60.72
2023-05-05T06:11:43.911Z,61.03
2023-05-05T06:14:11.793Z,61.32
2023-05-05T06:16:39.667Z,61.40
2023-05-05T06:19:09.670Z,61.64
2023-05-05T06:21:37.590Z,61.62
2023-05-05T06:24:05.705Z,61.49
2023-05-05T06:26:33.641Z,61.47
2023-05-05T06:29:01.661Z,61.51
2023-05-05T06:31:29.528Z,61.53
2023-05-05T06:33:57.324Z,61.55
2023-05-05T06:36:25.342Z,61.46
2023-05-05T06:38:53.199Z,61.56
2023-05-05T06:41:21.384Z,61.64
2023-05-05T06:43:49.250Z,61.75
2023-05-05T06:46:17.350Z,61.38
2023-05-05T06:48:45.530Z,61.48
2023-05-05T06:51:13.442Z,61.52
2023-05-05T06:53:41.698Z,61.30
2023-05-05T06:56:19.895Z,61.14
2023-05-05T06:58:47.868Z,61.18
2023-05-05T07:01:15.750Z,60.63
2023-05-05T07:03:44.065Z,60.39
2023-05-05T07:06:11.964Z,60.28
2023-05-05T07:08:39.786Z,59.91
2023-05-05T07:11:09.227Z,59.87
2023-05-05T07:13:37.139Z,59.63
2023-05-05T07:16:05.438Z,59.61
2023-05-05T07:18:33.278Z,58.90
2023-05-05T07:21:01.692Z,58.86
2023-05-05T07:23:29.526Z,58.94
2023-05-05T07:25:57.617Z,58.73
2023-05-05T07:28:25.663Z,57.98
2023-05-05T07:30:53.718Z,57.88
2023-05-05T07:33:21.674Z,57.81
2023-05-05T07:35:49.455Z,57.48
2023-05-05T07:38:17.354Z,57.34
2023-05-05T07:40:45.232Z,57.23
2023-05-05T07:43:13.036Z,56.64
2023-05-05T07:45:40.974Z,56.30
2023-05-05T07:48:08.798Z,56.52
2023-05-05T07:50:36.719Z,56.82
2023-05-05T07:53:13.712Z,56.96
2023-05-05T07:55:42.562Z,56.92
2023-05-05T07:58:11.209Z,57.03
2023-05-05T08:00:39.992Z,57.19
2023-05-05T08:03:11.294Z,57.29
2023-05-05T08:05:39.675Z,57.21
2023-05-05T08:08:07.585Z,57.20
2023-05-05T08:10:35.826Z,56.90
2023-05-05T08:13:03.792Z,56.43
2023-05-05T08:15:31.695Z,55.86
2023-05-05T08:17:59.813Z,55.29
2023-05-05T08:20:29.525Z,55.05
2023-05-05T08:22:57.507Z,54.74
2023-05-05T08:25:27.040Z,54.54
2023-05-05T08:27:55.056Z,54.35
2023-05-05T08:30:22.867Z,54.71
2023-05-05T08:32:50.824Z,54.82
2023-05-05T08:35:18.964Z,54.77
2023-05-05T08:37:47.123Z,54.70
2023-05-05T08:40:15.146Z,54.76
2023-05-05T08:42:44.720Z,54.43
2023-05-05T08:45:13.047Z,53.91
2023-05-05T08:47:42.055Z,53.44
2023-05-05T08:50:11.517Z,53.36
2023-05-05T08:52:44.586Z,53.13
2023-05-05T08:55:41.771Z,52.99
2023-05-05T08:58:10.027Z,52.70
2023-05-05T09:00:37.959Z,52.41
2023-05-05T09:03:06.065Z,52.43
2023-05-05T09:05:34.036Z,52.04
2023-05-05T09:08:02.498Z,50.32
2023-05-05T09:10:32.734Z,50.20
2023-05-05T09:13:00.717Z,50.48
2023-05-05T09:15:28.730Z,50.47
2023-05-05T09:18:03.735Z,49.41
2023-05-05T09:20:36.648Z,49.44
2023-05-05T09:23:13.651Z,48.81
2023-05-05T09:26:02.141Z,47.70
2023-05-05T09:28:30.291Z,47.42
2023-05-05T09:31:14.012Z,46.72
2023-05-05T09:33:42.104Z,47.51
2023-05-05T09:36:10.184Z,46.42
2023-05-05T09:38:38.107Z,46.79
2023-05-05T09:41:06.636Z,46.39
2023-05-05T09:43:52.884Z,45.73
2023-05-05T09:46:21.155Z,45.53
2023-05-05T09:48:49.119Z,45.70
2023-05-05T09:51:29.166Z,45.65
2023-05-05T09:53:57.725Z,45.86
2023-05-05T09:56:40.428Z,45.81
2023-05-05T09:59:11.996Z,45.70
2023-05-05T10:01:41.505Z,44.98
2023-05-05T10:04:30.000Z,44.83
2023-05-05T10:06:58.930Z,44.87
2023-05-05T10:09:27.652Z,44.16
2023-05-05T10:11:56.848Z,43.90
2023-05-05T10:14:25.689Z,43.66
2023-05-05T10:16:55.763Z,43.64
2023-05-05T10:19:24.548Z,44.17
2023-05-05T10:21:56.462Z,43.81
2023-05-05T10:24:43.097Z,43.32
2023-05-05T10:27:20.681Z,42.69
2023-05-05T10:30:04.263Z,41.97
2023-05-05T10:32:55.986Z,42.00
2023-05-05T10:35:31.934Z,41.92
2023-05-05T10:38:00.214Z,42.22
2023-05-05T10:40:28.417Z,42.05
2023-05-05T10:42:56.392Z,41.56
2023-05-05T10:45:24.472Z,42.25
2023-05-05T10:47:53.940Z,42.29
2023-05-05T10:50:31.540Z,41.49
2023-05-05T10:53:22.834Z,40.97
2023-05-05T10:56:17.003Z,41.55
2023-05-05T10:58:59.091Z,41.32
2023-05-05T11:01:33.818Z,40.76
2023-05-05T11:04:23.323Z,39.76
2023-05-05T11:07:13.392Z,38.82
2023-05-05T11:10:15.835Z,38.01
2023-05-05T11:12:57.807Z,38.62
2023-05-05T11:15:28.812Z,37.74
2023-05-05T11:18:05.035Z,37.81
2023-05-05T11:20:40.451Z,37.46
2023-05-05T11:23:08.339Z,37.56
2023-05-05T11:25:36.936Z,37.83
2023-05-05T11:28:05.373Z,36.58
2023-05-05T11:30:33.224Z,36.71
2023-05-05T11:33:37.116Z,37.02
2023-05-05T11:36:09.337Z,37.37
2023-05-05T11:39:10.261Z,37.52
2023-05-05T11:42:16.435Z,36.79
2023-05-05T11:44:44.417Z,36.79
2023-05-05T11:47:12.184Z,37.33
2023-05-05T11:49:40.079Z,37.30
2023-05-05T11:52:14.220Z,37.52
2023-05-05T11:54:48.765Z,38.08
2023-05-05T11:57:21.197Z,37.58
2023-05-05T11:59:54.869Z,37.26
2023-05-05T12:02:24.463Z,37.54
2023-05-05T12:04:52.941Z,37.33
2023-05-05T12:07:24.374Z,36.69
2023-05-05T12:09:53.302Z,37.43
2023-05-05T12:12:22.134Z,37.66
2023-05-05T12:14:53.042Z,37.66
2023-05-05T12:17:22.826Z,37.33
2023-05-05T12:19:55.008Z,37.95
2023-05-05T12:22:27.350Z,38.12
2023-05-05T12:24:56.602Z,37.84
2023-05-05T12:27:27.027Z,37.62
2023-05-05T12:29:56.718Z,37.78
2023-05-05T12:32:28.184Z,37.60
2023-05-05T12:34:57.427Z,37.60
2023-05-05T12:37:27.138Z,37.53
2023-05-05T12:39:55.142Z,37.29
2023-05-05T12:42:23.435Z,37.59
2023-05-05T12:44:51.439Z,36.73
2023-05-05T12:47:33.076Z,36.50
2023-05-05T12:50:03.060Z,36.71
2023-05-05T12:52:45.295Z,36.72
2023-05-05T12:55:13.400Z,36.76
2023-05-05T12:58:01.508Z,36.36
2023-05-05T13:00:29.469Z,36.49
2023-05-05T13:02:58.136Z,36.57
2023-05-05T13:05:38.040Z,36.44
2023-05-05T13:08:06.107Z,36.05
2023-05-05T13:10:34.149Z,36.43
2023-05-05T13:13:02.527Z,36.66
2023-05-05T13:15:30.697Z,36.64
2023-05-05T13:18:02.732Z,37.19
2023-05-05T13:20:31.034Z,37.79
2023-05-05T13:22:58.824Z,37.50
2023-05-05T13:25:26.890Z,38.08
2023-05-05T13:27:54.744Z,38.88
2023-05-05T13:30:22.808Z,39.74
2023-05-05T13:32:50.906Z,40.14
2023-05-05T13:35:18.809Z,39.97
2023-05-05T13:37:47.631Z,39.60
2023-05-05T13:40:15.598Z,40.50
2023-05-05T13:42:44.102Z,41.14
2023-05-05T13:45:12.393Z,41.56
2023-05-05T13:47:42.040Z,41.78
2023-05-05T13:50:10.617Z,42.44
2023-05-05T13:52:38.618Z,42.80
2023-05-05T13:55:07.482Z,43.21
2023-05-05T13:57:35.442Z,43.31
2023-05-05T14:00:04.689Z,43.47
2023-05-05T14:02:34.215Z,43.74
2023-05-05T14:05:02.141Z,43.13
2023-05-05T14:07:30.031Z,43.21
2023-05-05T14:09:58.006Z,43.09
2023-05-05T14:12:27.160Z,43.73
2023-05-05T14:14:55.034Z,43.99
2023-05-05T14:17:23.111Z,44.12
2023-05-05T14:19:51.594Z,43.98
2023-05-05T14:22:19.445Z,44.11
2023-05-05T14:24:47.259Z,44.10
2023-05-05T14:27:15.052Z,44.47
2023-05-05T14:29:43.116Z,44.70
2023-05-05T14:32:11.070Z,44.87
2023-05-05T14:34:39.080Z,44.86
2023-05-05T14:37:06.974Z,44.78
2023-05-05T14:39:34.867Z,44.97
2023-05-05T14:42:02.779Z,45.04
2023-05-05T14:44:30.637Z,45.18
2023-05-05T14:46:58.520Z,45.21
2023-05-05T14:49:26.485Z,45.15
2023-05-05T14:51:55.490Z,45.48
2023-05-05T14:54:28.803Z,45.79
2023-05-05T14:56:58.328Z,45.65
2023-05-05T14:59:27.657Z,45.52
2023-05-05T15:01:56.311Z,45.82
2023-05-05T15:04:24.305Z,45.87
2023-05-05T15:06:52.306Z,45.94
2023-05-05T15:09:20.433Z,45.82
2023-05-05T15:11:48.265Z,45.89
2023-05-05T15:14:16.239Z,45.97
2023-05-05T15:16:44.070Z,46.56
2023-05-05T15:19:14.831Z,46.92
2023-05-05T15:21:43.976Z,47.19
2023-05-05T15:24:11.916Z,47.39
2023-05-05T15:26:39.751Z,47.80
2023-05-05T15:29:07.557Z,48.05
2023-05-05T15:31:35.317Z,48.17
2023-05-05T15:34:03.122Z,48.41
2023-05-05T15:36:32.267Z,48.32
2023-05-05T15:39:00.140Z,48.11
2023-05-05T15:41:29.394Z,48.21
2023-05-05T15:43:57.183Z,48.37
2023-05-05T15:46:26.324Z,48.44
2023-05-05T15:48:54.095Z,48.70
2023-05-05T15:51:22.120Z,49.00
2023-05-05T15:53:50.016Z,49.14
2023-05-05T15:56:17.951Z,49.11
2023-05-05T15:58:45.817Z,48.98
2023-05-05T16:01:13.695Z,49.55
2023-05-05T16:03:41.603Z,49.79
2023-05-05T16:06:12.209Z,50.03
2023-05-05T16:08:39.970Z,49.79
2023-05-05T16:11:07.789Z,49.48
2023-05-05T16:13:35.919Z,49.62
2023-05-05T16:16:06.919Z,49.72
2023-05-05T16:18:34.781Z,49.85
2023-05-05T16:21:02.935Z,49.84
2023-05-05T16:23:30.798Z,49.51
2023-05-05T16:25:58.588Z,49.48
2023-05-05T16:28:26.800Z,49.47
2023-05-05T16:30:54.666Z,49.14
2023-05-05T16:33:22.994Z,49.01
2023-05-05T16:35:50.789Z,49.14
2023-05-05T16:38:18.636Z,49.12
2023-05-05T16:40:46.423Z,48.92
2023-05-05T16:43:14.244Z,48.57
2023-05-05T16:45:42.149Z,48.40
2023-05-05T16:48:10.190Z,48.31
2023-05-05T16:50:38.005Z,48.35
2023-05-05T16:53:06.496Z,48.11
2023-05-05T16:55:34.338Z,48.22
2023-05-05T16:58:02.213Z,48.53
2023-05-05T17:00:30.461Z,48.74
2023-05-05T17:02:58.725Z,48.98
2023-05-05T17:05:29.091Z,49.17
2023-05-05T17:07:57.137Z,49.33
2023-05-05T17:10:24.985Z,49.57
2023-05-05T17:12:52.946Z,49.41
2023-05-05T17:15:21.660Z,49.49
2023-05-05T17:17:49.783Z,49.36
2023-05-05T17:20:20.586Z,49.49
2023-05-05T17:22:48.732Z,49.66
2023-05-05T17:25:16.594Z,49.71
2023-05-05T17:27:45.930Z,49.85
2023-05-05T17:30:14.521Z,50.00
2023-05-05T17:32:42.834Z,50.36
2023-05-05T17:35:11.192Z,50.41
2023-05-05T17:37:39.477Z,51.20
2023-05-05T17:40:08.532Z,51.21
2023-05-05T17:42:39.133Z,51.13
2023-05-05T17:45:08.294Z,51.02
2023-05-05T17:47:36.711Z,50.99
2023-05-05T17:50:05.544Z,50.92
2023-05-05T17:52:33.409Z,51.01
2023-05-05T17:55:01.666Z,50.91
2023-05-05T17:57:29.561Z,50.94
2023-05-05T17:59:57.370Z,51.04
2023-05-05T18:02:25.340Z,50.99
2023-05-05T18:04:54.290Z,51.09
2023-05-05T18:07:23.674Z,51.13
2023-05-05T18:09:51.969Z,51.12
2023-05-05T18:12:19.930Z,51.19
2023-05-05T18:14:47.900Z,51.21
2023-05-05T18:17:15.668Z,51.31
2023-05-05T18:19:46.561Z,51.53
2023-05-05T18:22:16.471Z,51.77
2023-05-05T18:24:44.353Z,51.87
2023-05-05T18:27:12.389Z,52.04
2023-05-05T18:29:40.282Z,52.20
2023-05-05T18:32:08.166Z,52.35
2023-05-05T18:34:36.101Z,52.49
2023-05-05T18:37:03.933Z,52.54
2023-05-05T18:39:31.836Z,52.74
2023-05-05T18:41:59.800Z,53.01
2023-05-05T18:44:27.733Z,53.02
2023-05-05T18:46:55.663Z,53.08
2023-05-05T18:49:24.755Z,53.27
2023-05-05T18:51:53.697Z,53.52
2023-05-05T18:54:22.096Z,53.50
2023-05-05T18:56:49.928Z,53.71
2023-05-05T18:59:18.805Z,53.84
2023-05-05T19:01:46.659Z,53.93
2023-05-05T19:04:29.606Z,54.10
2023-05-05T19:06:59.666Z,54.30
2023-05-05T19:09:27.802Z,54.27
2023-05-05T19:11:55.793Z,54.35
2023-05-05T19:14:23.791Z,54.30
2023-05-05T19:16:52.239Z,54.29
2023-05-05T19:19:20.136Z,54.36
2023-05-05T19:21:48.490Z,54.55
2023-05-05T19:24:16.466Z,54.46
2023-05-05T19:26:44.400Z,54.65
2023-05-05T19:29:12.925Z,54.63
2023-05-05T19:31:40.731Z,54.65
2023-05-05T19:34:08.815Z,54.79
2023-05-05T19:36:36.858Z,54.87
2023-05-05T19:39:05.138Z,54.92
2023-05-05T19:41:35.370Z,54.98
2023-05-05T19:44:03.426Z,54.99
2023-05-05T19:46:31.412Z,55.07
2023-05-05T19:48:59.531Z,55.28
2023-05-05T19:51:27.502Z,55.32
2023-05-05T19:53:55.364Z,55.39
2023-05-05T19:56:24.052Z,55.52
2023-05-05T19:59:01.433Z,55.55
2023-05-05T20:01:29.828Z,55.57
2023-05-05T20:03:58.141Z,55.57
2023-05-05T20:06:27.035Z,55.78
2023-05-05T20:08:55.674Z,55.65
2023-05-05T20:11:25.836Z,55.75
2023-05-05T20:13:53.768Z,56.00
2023-05-05T20:16:22.002Z,56.05
2023-05-05T20:18:50.066Z,56.15
2023-05-05T20:21:18.661Z,56.43
2023-05-05T20:23:47.324Z,56.43
2023-05-05T20:26:15.189Z,56.38
2023-05-05T20:28:45.354Z,56.37
2023-05-05T20:31:14.619Z,56.64
2023-05-05T20:33:42.649Z,56.69
2023-05-05T20:36:11.489Z,56.80
2023-05-05T20:38:39.518Z,56.73
2023-05-05T20:41:07.459Z,56.89
2023-05-05T20:43:36.783Z,57.00
2023-05-05T20:46:05.820Z,57.29
2023-05-05T20:48:33.894Z,57.36
2023-05-05T20:51:04.738Z,57.40
2023-05-05T20:53:32.890Z,57.45
2023-05-05T20:56:01.081Z,57.59
2023-05-05T20:58:29.980Z,57.69
2023-05-05T21:00:58.505Z,57.78
2023-05-05T21:03:26.353Z,57.92
2023-05-05T21:05:54.462Z,57.99
2023-05-05T21:08:22.391Z,58.06
2023-05-05T21:10:53.226Z,58.08
2023-05-05T21:13:25.600Z,58.15
2023-05-05T21:15:53.622Z,58.51
2023-05-05T21:18:21.740Z,58.40
2023-05-05T21:20:50.842Z,58.32
2023-05-05T21:23:18.698Z,58.68
2023-05-05T21:25:46.503Z,58.70
2023-05-05T21:28:14.351Z,58.86
2023-05-05T21:30:42.215Z,58.75
2023-05-05T21:33:10.308Z,58.98
2023-05-05T21:35:38.318Z,58.86
2023-05-05T21:38:06.147Z,59.02
2023-05-05T21:40:33.975Z,58.97
2023-05-05T21:43:01.903Z,58.93
2023-05-05T21:45:29.780Z,59.01
2023-05-05T21:47:57.703Z,59.08
2023-05-05T21:50:26.593Z,59.25
2023-05-05T21:52:55.445Z,59.23
2023-05-05T21:55:23.349Z,59.18
2023-05-05T21:57:51.371Z,59.17
2023-05-05T22:00:19.337Z,59.37
2023-05-05T22:02:50.690Z,59.43
2023-05-05T22:05:18.636Z,59.52
2023-05-05T22:07:46.601Z,59.59
2023-05-05T22:10:14.498Z,59.65
2023-05-05T22:12:42.314Z,59.81
2023-05-05T22:15:10.929Z,59.93
2023-05-05T22:17:38.946Z,60.05
2023-05-05T22:20:11.179Z,59.92
2023-05-05T22:22:39.147Z,59.94
2023-05-05T22:25:07.806Z,60.08
2023-05-05T22:27:35.966Z,60.14
2023-05-05T22:30:04.313Z,60.19
2023-05-05T22:32:32.722Z,60.16
2023-05-05T22:35:01.422Z,60.43
2023-05-05T22:37:29.220Z,60.42
2023-05-05T22:39:57.028Z,60.43
2023-05-05T22:42:24.825Z,60.46
2023-05-05T22:44:52.937Z,60.57
2023-05-05T22:47:20.806Z,60.55
2023-05-05T22:49:48.683Z,60.58
2023-05-05T22:52:16.637Z,60.50
2023-05-05T22:54:44.447Z,60.61
2023-05-05T22:57:12.252Z,60.67
2023-05-05T22:59:40.152Z,60.63
2023-05-05T23:02:07.953Z,60.71
2023-05-05T23:04:36.252Z,60.68
2023-05-05T23:07:04.177Z,60.84
2023-05-05T23:09:32.115Z,60.87
2023-05-05T23:11:59.946Z,60.94
2023-05-05T23:14:27.763Z,60.89
2023-05-05T23:16:55.533Z,61.09
2023-05-05T23:19:24.184Z,61.14
2023-05-05T23:21:53.661Z,61.08
2023-05-05T23:24:22.042Z,61.13
2023-05-05T23:26:49.944Z,61.29
2023-05-05T23:29:18.979Z,61.25
2023-05-05T23:31:47.047Z,61.27
2023-05-05T23:34:15.034Z,61.37
2023-05-05T23:36:43.420Z,61.48
2023-05-05T23:39:11.465Z,61.45
2023-05-05T23:41:39.354Z,61.73
2023-05-05T23:44:07.224Z,61.79
2023-05-05T23:46:35.157Z,61.82
2023-05-05T23:49:03.044Z,61.82
2023-05-05T23:51:31.091Z,61.94
2023-05-05T23:53:58.955Z,62.07
2023-05-05T23:56:26.921Z,62.17
2023-05-05T23:58:54.904Z,62.19
